sensor_id;sensor_type;location;lat;lon;timestamp;P1;durP1;ratioP1;P2;durP2;ratioP2
81367;SDS011;70823;50.056;14.398;2024-03-07T00:01:59;11.13;;;7.63;;
81367;SDS011;70823;50.056;14.398;2024-03-07T00:04:24;10.53;;;6.63;;
81367;SDS011;70823;50.056;14.398;2024-03-07T00:06:50;9.60;;;6.77;;
81367;SDS011;70823;50.056;14.398;2024-03-07T00:09:15;9.93;;;6.60;;
81367;SDS011;70823;50.056;14.398;2024-03-07T00:11:41;9.65;;;6.60;;
81367;SDS011;70823;50.056;14.398;2024-03-07T00:14:06;10.07;;;7.00;;
81367;SDS011;70823;50.056;14.398;2024-03-07T00:16:32;9.07;;;6.90;;
81367;SDS011;70823;50.056;14.398;2024-03-07T00:18:58;9.52;;;6.55;;
81367;SDS011;70823;50.056;14.398;2024-03-07T00:21:24;9.52;;;6.28;;
81367;SDS011;70823;50.056;14.398;2024-03-07T00:23:49;8.52;;;6.35;;
81367;SDS011;70823;50.056;14.398;2024-03-07T00:26:15;8.60;;;6.70;;
81367;SDS011;70823;50.056;14.398;2024-03-07T00:28:40;9.33;;;6.40;;
81367;SDS011;70823;50.056;14.398;2024-03-07T00:31:05;9.83;;;6.87;;
81367;SDS011;70823;50.056;14.398;2024-03-07T00:33:32;8.40;;;6.15;;
81367;SDS011;70823;50.056;14.398;2024-03-07T00:35:58;9.20;;;6.22;;
81367;SDS011;70823;50.056;14.398;2024-03-07T00:38:23;8.68;;;6.22;;
81367;SDS011;70823;50.056;14.398;2024-03-07T00:40:48;8.77;;;6.03;;
81367;SDS011;70823;50.056;14.398;2024-03-07T00:43:14;9.60;;;6.30;;
81367;SDS011;70823;50.056;14.398;2024-03-07T00:45:39;8.15;;;6.18;;
81367;SDS011;70823;50.056;14.398;2024-03-07T00:48:05;7.70;;;5.57;;
81367;SDS011;70823;50.056;14.398;2024-03-07T00:50:30;11.67;;;6.30;;
81367;SDS011;70823;50.056;14.398;2024-03-07T00:52:57;10.30;;;6.82;;
81367;SDS011;70823;50.056;14.398;2024-03-07T00:55:22;11.00;;;7.13;;
81367;SDS011;70823;50.056;14.398;2024-03-07T00:57:47;8.07;;;6.40;;
81367;SDS011;70823;50.056;14.398;2024-03-07T01:00:13;7.97;;;6.15;;
81367;SDS011;70823;50.056;14.398;2024-03-07T01:02:42;8.68;;;6.40;;
81367;SDS011;70823;50.056;14.398;2024-03-07T01:05:10;8.15;;;6.43;;
81367;SDS011;70823;50.056;14.398;2024-03-07T01:07:38;9.13;;;6.85;;
81367;SDS011;70823;50.056;14.398;2024-03-07T01:10:03;11.73;;;6.20;;
81367;SDS011;70823;50.056;14.398;2024-03-07T01:12:31;9.85;;;6.07;;
81367;SDS011;70823;50.056;14.398;2024-03-07T01:14:56;7.70;;;5.65;;
81367;SDS011;70823;50.056;14.398;2024-03-07T01:17:25;7.65;;;6.15;;
81367;SDS011;70823;50.056;14.398;2024-03-07T01:19:50;8.57;;;5.77;;
81367;SDS011;70823;50.056;14.398;2024-03-07T01:22:15;8.30;;;6.13;;
81367;SDS011;70823;50.056;14.398;2024-03-07T01:24:41;8.83;;;5.90;;
81367;SDS011;70823;50.056;14.398;2024-03-07T01:27:06;9.90;;;6.57;;
81367;SDS011;70823;50.056;14.398;2024-03-07T01:29:31;8.88;;;5.97;;
81367;SDS011;70823;50.056;14.398;2024-03-07T01:31:57;8.32;;;5.90;;
81367;SDS011;70823;50.056;14.398;2024-03-07T01:34:22;7.88;;;5.47;;
81367;SDS011;70823;50.056;14.398;2024-03-07T01:36:48;7.07;;;5.37;;
81367;SDS011;70823;50.056;14.398;2024-03-07T01:39:13;7.73;;;5.70;;
81367;SDS011;70823;50.056;14.398;2024-03-07T01:41:39;7.85;;;5.43;;
81367;SDS011;70823;50.056;14.398;2024-03-07T01:44:05;6.68;;;5.05;;
81367;SDS011;70823;50.056;14.398;2024-03-07T01:46:31;7.72;;;5.43;;
81367;SDS011;70823;50.056;14.398;2024-03-07T01:48:57;7.40;;;5.40;;
81367;SDS011;70823;50.056;14.398;2024-03-07T01:51:23;7.90;;;5.70;;
81367;SDS011;70823;50.056;14.398;2024-03-07T01:53:48;6.80;;;5.30;;
81367;SDS011;70823;50.056;14.398;2024-03-07T01:56:13;7.53;;;5.70;;
81367;SDS011;70823;50.056;14.398;2024-03-07T01:58:39;8.18;;;5.78;;
81367;SDS011;70823;50.056;14.398;2024-03-07T02:01:05;8.32;;;6.10;;
81367;SDS011;70823;50.056;14.398;2024-03-07T02:03:31;8.43;;;5.32;;
81367;SDS011;70823;50.056;14.398;2024-03-07T02:05:57;7.10;;;5.53;;
81367;SDS011;70823;50.056;14.398;2024-03-07T02:08:22;8.15;;;5.97;;
81367;SDS011;70823;50.056;14.398;2024-03-07T02:10:47;7.63;;;5.13;;
81367;SDS011;70823;50.056;14.398;2024-03-07T02:13:13;7.57;;;5.40;;
81367;SDS011;70823;50.056;14.398;2024-03-07T02:15:39;7.40;;;5.68;;
81367;SDS011;70823;50.056;14.398;2024-03-07T02:18:04;7.93;;;5.93;;
81367;SDS011;70823;50.056;14.398;2024-03-07T02:20:30;7.28;;;5.28;;
81367;SDS011;70823;50.056;14.398;2024-03-07T02:22:55;7.07;;;5.17;;
81367;SDS011;70823;50.056;14.398;2024-03-07T02:25:21;8.23;;;5.53;;
81367;SDS011;70823;50.056;14.398;2024-03-07T02:27:46;6.57;;;5.15;;
81367;SDS011;70823;50.056;14.398;2024-03-07T02:30:12;7.13;;;5.40;;
81367;SDS011;70823;50.056;14.398;2024-03-07T02:32:37;7.00;;;5.22;;
81367;SDS011;70823;50.056;14.398;2024-03-07T02:35:03;7.53;;;5.40;;
81367;SDS011;70823;50.056;14.398;2024-03-07T02:37:29;7.25;;;5.65;;
81367;SDS011;70823;50.056;14.398;2024-03-07T02:39:55;7.07;;;5.13;;
81367;SDS011;70823;50.056;14.398;2024-03-07T02:42:20;6.70;;;5.22;;
81367;SDS011;70823;50.056;14.398;2024-03-07T02:44:46;6.93;;;5.20;;
81367;SDS011;70823;50.056;14.398;2024-03-07T02:47:11;7.13;;;5.30;;
81367;SDS011;70823;50.056;14.398;2024-03-07T02:49:36;6.60;;;5.23;;
81367;SDS011;70823;50.056;14.398;2024-03-07T02:52:02;7.13;;;5.30;;
81367;SDS011;70823;50.056;14.398;2024-03-07T02:54:31;6.72;;;5.00;;
81367;SDS011;70823;50.056;14.398;2024-03-07T02:56:57;7.55;;;5.68;;
81367;SDS011;70823;50.056;14.398;2024-03-07T02:59:22;6.97;;;5.13;;
81367;SDS011;70823;50.056;14.398;2024-03-07T03:01:48;7.37;;;5.40;;
81367;SDS011;70823;50.056;14.398;2024-03-07T03:04:13;5.80;;;4.75;;
81367;SDS011;70823;50.056;14.398;2024-03-07T03:06:39;7.57;;;5.50;;
81367;SDS011;70823;50.056;14.398;2024-03-07T03:09:04;6.80;;;4.93;;
81367;SDS011;70823;50.056;14.398;2024-03-07T03:11:30;7.45;;;5.03;;
81367;SDS011;70823;50.056;14.398;2024-03-07T03:13:55;6.40;;;4.90;;
81367;SDS011;70823;50.056;14.398;2024-03-07T03:16:21;6.33;;;4.70;;
81367;SDS011;70823;50.056;14.398;2024-03-07T03:18:46;7.60;;;5.05;;
81367;SDS011;70823;50.056;14.398;2024-03-07T03:21:13;6.50;;;5.00;;
81367;SDS011;70823;50.056;14.398;2024-03-07T03:23:40;6.22;;;4.50;;
81367;SDS011;70823;50.056;14.398;2024-03-07T03:26:05;7.33;;;5.17;;
81367;SDS011;70823;50.056;14.398;2024-03-07T03:28:31;6.30;;;5.07;;
81367;SDS011;70823;50.056;14.398;2024-03-07T03:30:56;6.67;;;4.97;;
81367;SDS011;70823;50.056;14.398;2024-03-07T03:33:22;5.85;;;4.50;;
81367;SDS011;70823;50.056;14.398;2024-03-07T03:35:48;6.28;;;4.97;;
81367;SDS011;70823;50.056;14.398;2024-03-07T03:38:13;7.18;;;4.47;;
81367;SDS011;70823;50.056;14.398;2024-03-07T03:40:38;5.78;;;4.20;;
81367;SDS011;70823;50.056;14.398;2024-03-07T03:43:04;5.85;;;4.60;;
81367;SDS011;70823;50.056;14.398;2024-03-07T03:45:30;6.32;;;4.55;;
81367;SDS011;70823;50.056;14.398;2024-03-07T03:47:57;6.13;;;4.25;;
81367;SDS011;70823;50.056;14.398;2024-03-07T03:50:22;6.53;;;5.05;;
81367;SDS011;70823;50.056;14.398;2024-03-07T03:52:48;6.50;;;5.05;;
81367;SDS011;70823;50.056;14.398;2024-03-07T03:55:13;6.63;;;5.10;;
81367;SDS011;70823;50.056;14.398;2024-03-07T03:57:39;6.35;;;4.53;;
81367;SDS011;70823;50.056;14.398;2024-03-07T04:00:07;6.00;;;4.78;;
81367;SDS011;70823;50.056;14.398;2024-03-07T04:02:39;6.15;;;4.72;;
81367;SDS011;70823;50.056;14.398;2024-03-07T04:05:05;6.18;;;4.50;;
81367;SDS011;70823;50.056;14.398;2024-03-07T04:07:31;6.45;;;4.55;;
81367;SDS011;70823;50.056;14.398;2024-03-07T04:09:56;5.90;;;4.53;;
81367;SDS011;70823;50.056;14.398;2024-03-07T04:12:26;6.35;;;4.75;;
81367;SDS011;70823;50.056;14.398;2024-03-07T04:14:52;5.70;;;4.07;;
81367;SDS011;70823;50.056;14.398;2024-03-07T04:17:19;6.72;;;4.90;;
81367;SDS011;70823;50.056;14.398;2024-03-07T04:19:45;6.03;;;4.32;;
81367;SDS011;70823;50.056;14.398;2024-03-07T04:22:11;5.45;;;4.30;;
81367;SDS011;70823;50.056;14.398;2024-03-07T04:24:38;6.10;;;4.45;;
81367;SDS011;70823;50.056;14.398;2024-03-07T04:27:05;6.63;;;4.45;;
81367;SDS011;70823;50.056;14.398;2024-03-07T04:29:31;6.40;;;4.60;;
81367;SDS011;70823;50.056;14.398;2024-03-07T04:31:57;5.97;;;4.60;;
81367;SDS011;70823;50.056;14.398;2024-03-07T04:34:23;5.90;;;4.25;;
81367;SDS011;70823;50.056;14.398;2024-03-07T04:36:48;6.10;;;4.00;;
81367;SDS011;70823;50.056;14.398;2024-03-07T04:39:13;6.73;;;4.00;;
81367;SDS011;70823;50.056;14.398;2024-03-07T04:42:01;6.03;;;4.40;;
81367;SDS011;70823;50.056;14.398;2024-03-07T04:44:28;6.00;;;4.28;;
81367;SDS011;70823;50.056;14.398;2024-03-07T04:46:53;7.15;;;4.70;;
81367;SDS011;70823;50.056;14.398;2024-03-07T04:49:25;5.72;;;4.30;;
81367;SDS011;70823;50.056;14.398;2024-03-07T04:51:51;6.40;;;4.20;;
81367;SDS011;70823;50.056;14.398;2024-03-07T04:54:17;5.15;;;4.22;;
81367;SDS011;70823;50.056;14.398;2024-03-07T04:56:43;6.22;;;4.38;;
81367;SDS011;70823;50.056;14.398;2024-03-07T04:59:08;6.25;;;4.50;;
81367;SDS011;70823;50.056;14.398;2024-03-07T05:01:35;6.40;;;4.38;;
81367;SDS011;70823;50.056;14.398;2024-03-07T05:04:00;6.97;;;4.53;;
81367;SDS011;70823;50.056;14.398;2024-03-07T05:06:25;6.67;;;4.57;;
81367;SDS011;70823;50.056;14.398;2024-03-07T05:08:51;5.37;;;4.00;;
81367;SDS011;70823;50.056;14.398;2024-03-07T05:11:16;5.93;;;4.27;;
81367;SDS011;70823;50.056;14.398;2024-03-07T05:13:42;5.85;;;4.15;;
81367;SDS011;70823;50.056;14.398;2024-03-07T05:16:07;6.57;;;4.30;;
81367;SDS011;70823;50.056;14.398;2024-03-07T05:18:33;5.68;;;4.10;;
81367;SDS011;70823;50.056;14.398;2024-03-07T05:20:58;5.30;;;4.13;;
81367;SDS011;70823;50.056;14.398;2024-03-07T05:23:43;4.95;;;3.90;;
81367;SDS011;70823;50.056;14.398;2024-03-07T05:26:08;6.00;;;4.17;;
81367;SDS011;70823;50.056;14.398;2024-03-07T05:28:35;6.25;;;4.40;;
81367;SDS011;70823;50.056;14.398;2024-03-07T05:31:01;5.50;;;3.85;;
81367;SDS011;70823;50.056;14.398;2024-03-07T05:33:29;5.97;;;3.92;;
81367;SDS011;70823;50.056;14.398;2024-03-07T05:35:54;6.13;;;4.05;;
81367;SDS011;70823;50.056;14.398;2024-03-07T05:38:27;5.50;;;4.13;;
81367;SDS011;70823;50.056;14.398;2024-03-07T05:40:53;5.78;;;4.15;;
81367;SDS011;70823;50.056;14.398;2024-03-07T05:43:18;5.22;;;3.70;;
81367;SDS011;70823;50.056;14.398;2024-03-07T05:45:44;6.00;;;4.43;;
81367;SDS011;70823;50.056;14.398;2024-03-07T05:48:14;6.45;;;4.55;;
81367;SDS011;70823;50.056;14.398;2024-03-07T05:50:40;6.80;;;4.65;;
81367;SDS011;70823;50.056;14.398;2024-03-07T05:53:06;5.63;;;3.87;;
81367;SDS011;70823;50.056;14.398;2024-03-07T05:55:33;5.25;;;3.92;;
81367;SDS011;70823;50.056;14.398;2024-03-07T05:57:58;5.38;;;4.22;;
81367;SDS011;70823;50.056;14.398;2024-03-07T06:00:23;5.10;;;4.00;;
81367;SDS011;70823;50.056;14.398;2024-03-07T06:02:52;5.93;;;3.80;;
81367;SDS011;70823;50.056;14.398;2024-03-07T06:05:18;8.20;;;4.03;;
81367;SDS011;70823;50.056;14.398;2024-03-07T06:07:44;5.20;;;4.32;;
81367;SDS011;70823;50.056;14.398;2024-03-07T06:10:12;6.78;;;4.05;;
81367;SDS011;70823;50.056;14.398;2024-03-07T06:12:37;6.27;;;4.33;;
81367;SDS011;70823;50.056;14.398;2024-03-07T06:15:05;11.50;;;5.10;;
81367;SDS011;70823;50.056;14.398;2024-03-07T06:17:31;6.18;;;4.65;;
81367;SDS011;70823;50.056;14.398;2024-03-07T06:19:56;7.30;;;5.30;;
81367;SDS011;70823;50.056;14.398;2024-03-07T06:22:21;8.13;;;5.77;;
81367;SDS011;70823;50.056;14.398;2024-03-07T06:24:47;8.23;;;5.38;;
81367;SDS011;70823;50.056;14.398;2024-03-07T06:27:12;8.57;;;5.93;;
81367;SDS011;70823;50.056;14.398;2024-03-07T06:29:51;10.32;;;6.40;;
81367;SDS011;70823;50.056;14.398;2024-03-07T06:32:18;10.38;;;6.63;;
81367;SDS011;70823;50.056;14.398;2024-03-07T06:34:43;9.18;;;6.30;;
81367;SDS011;70823;50.056;14.398;2024-03-07T06:37:09;11.20;;;7.33;;
81367;SDS011;70823;50.056;14.398;2024-03-07T06:39:34;10.13;;;7.72;;
81367;SDS011;70823;50.056;14.398;2024-03-07T06:42:00;10.95;;;7.78;;
81367;SDS011;70823;50.056;14.398;2024-03-07T06:44:25;10.38;;;7.65;;
81367;SDS011;70823;50.056;14.398;2024-03-07T06:46:51;10.45;;;7.00;;
81367;SDS011;70823;50.056;14.398;2024-03-07T06:49:17;10.00;;;6.47;;
81367;SDS011;70823;50.056;14.398;2024-03-07T06:51:42;8.32;;;6.38;;
81367;SDS011;70823;50.056;14.398;2024-03-07T06:54:08;9.60;;;5.88;;
81367;SDS011;70823;50.056;14.398;2024-03-07T06:56:34;8.03;;;5.90;;
81367;SDS011;70823;50.056;14.398;2024-03-07T06:58:59;9.63;;;5.93;;
81367;SDS011;70823;50.056;14.398;2024-03-07T07:03:54;7.65;;;5.75;;
81367;SDS011;70823;50.056;14.398;2024-03-07T07:06:22;10.70;;;6.85;;
81367;SDS011;70823;50.056;14.398;2024-03-07T07:08:47;8.40;;;5.70;;
81367;SDS011;70823;50.056;14.398;2024-03-07T07:11:12;11.50;;;6.00;;
81367;SDS011;70823;50.056;14.398;2024-03-07T07:13:38;7.60;;;5.67;;
81367;SDS011;70823;50.056;14.398;2024-03-07T07:16:03;9.02;;;5.80;;
81367;SDS011;70823;50.056;14.398;2024-03-07T07:18:29;9.60;;;6.00;;
81367;SDS011;70823;50.056;14.398;2024-03-07T07:20:55;6.90;;;5.20;;
81367;SDS011;70823;50.056;14.398;2024-03-07T07:23:21;7.03;;;5.57;;
81367;SDS011;70823;50.056;14.398;2024-03-07T07:25:46;7.73;;;5.20;;
81367;SDS011;70823;50.056;14.398;2024-03-07T07:28:12;7.33;;;5.23;;
81367;SDS011;70823;50.056;14.398;2024-03-07T07:30:37;7.07;;;5.07;;
81367;SDS011;70823;50.056;14.398;2024-03-07T07:33:02;6.60;;;4.97;;
81367;SDS011;70823;50.056;14.398;2024-03-07T07:35:28;8.05;;;4.57;;
81367;SDS011;70823;50.056;14.398;2024-03-07T07:37:53;8.17;;;5.10;;
81367;SDS011;70823;50.056;14.398;2024-03-07T07:40:21;8.57;;;5.60;;
81367;SDS011;70823;50.056;14.398;2024-03-07T07:42:51;7.88;;;5.65;;
81367;SDS011;70823;50.056;14.398;2024-03-07T07:45:17;6.75;;;5.00;;
81367;SDS011;70823;50.056;14.398;2024-03-07T07:47:44;9.27;;;5.40;;
81367;SDS011;70823;50.056;14.398;2024-03-07T07:50:15;6.65;;;4.65;;
81367;SDS011;70823;50.056;14.398;2024-03-07T07:52:45;8.18;;;5.03;;
81367;SDS011;70823;50.056;14.398;2024-03-07T07:55:13;7.18;;;4.70;;
81367;SDS011;70823;50.056;14.398;2024-03-07T07:57:46;6.07;;;4.63;;
81367;SDS011;70823;50.056;14.398;2024-03-07T08:00:19;6.93;;;4.82;;
81367;SDS011;70823;50.056;14.398;2024-03-07T08:02:49;8.27;;;5.18;;
81367;SDS011;70823;50.056;14.398;2024-03-07T08:05:16;6.60;;;5.00;;
81367;SDS011;70823;50.056;14.398;2024-03-07T08:07:43;6.68;;;4.18;;
81367;SDS011;70823;50.056;14.398;2024-03-07T08:10:10;7.63;;;4.68;;
81367;SDS011;70823;50.056;14.398;2024-03-07T08:12:35;6.93;;;4.70;;
81367;SDS011;70823;50.056;14.398;2024-03-07T08:15:02;6.10;;;4.95;;
81367;SDS011;70823;50.056;14.398;2024-03-07T08:17:30;7.20;;;4.80;;
81367;SDS011;70823;50.056;14.398;2024-03-07T08:19:56;5.97;;;4.63;;
81367;SDS011;70823;50.056;14.398;2024-03-07T08:22:21;7.57;;;4.40;;
81367;SDS011;70823;50.056;14.398;2024-03-07T08:24:47;9.50;;;5.20;;
81367;SDS011;70823;50.056;14.398;2024-03-07T08:27:12;7.20;;;5.28;;
81367;SDS011;70823;50.056;14.398;2024-03-07T08:29:37;6.47;;;4.73;;
81367;SDS011;70823;50.056;14.398;2024-03-07T08:32:04;5.65;;;4.13;;
81367;SDS011;70823;50.056;14.398;2024-03-07T08:34:30;6.35;;;5.10;;
81367;SDS011;70823;50.056;14.398;2024-03-07T08:36:55;6.10;;;4.55;;
81367;SDS011;70823;50.056;14.398;2024-03-07T08:39:21;7.20;;;5.10;;
81367;SDS011;70823;50.056;14.398;2024-03-07T08:41:47;5.82;;;4.47;;
81367;SDS011;70823;50.056;14.398;2024-03-07T08:44:12;6.80;;;4.50;;
81367;SDS011;70823;50.056;14.398;2024-03-07T08:46:38;6.93;;;4.35;;
81367;SDS011;70823;50.056;14.398;2024-03-07T08:49:04;6.13;;;4.20;;
81367;SDS011;70823;50.056;14.398;2024-03-07T08:51:30;7.03;;;4.20;;
81367;SDS011;70823;50.056;14.398;2024-03-07T08:53:55;6.47;;;4.60;;
81367;SDS011;70823;50.056;14.398;2024-03-07T08:56:20;5.22;;;4.10;;
81367;SDS011;70823;50.056;14.398;2024-03-07T08:58:47;6.28;;;4.72;;
81367;SDS011;70823;50.056;14.398;2024-03-07T09:01:12;6.55;;;4.75;;
81367;SDS011;70823;50.056;14.398;2024-03-07T09:03:38;5.25;;;4.10;;
81367;SDS011;70823;50.056;14.398;2024-03-07T09:06:03;5.57;;;4.28;;
81367;SDS011;70823;50.056;14.398;2024-03-07T09:08:29;5.50;;;4.20;;
81367;SDS011;70823;50.056;14.398;2024-03-07T09:10:55;5.35;;;4.45;;
81367;SDS011;70823;50.056;14.398;2024-03-07T09:13:20;6.17;;;4.20;;
81367;SDS011;70823;50.056;14.398;2024-03-07T09:15:46;6.95;;;4.20;;
81367;SDS011;70823;50.056;14.398;2024-03-07T09:18:11;5.63;;;4.33;;
81367;SDS011;70823;50.056;14.398;2024-03-07T09:20:37;5.45;;;4.20;;
81367;SDS011;70823;50.056;14.398;2024-03-07T09:23:03;5.45;;;4.57;;
81367;SDS011;70823;50.056;14.398;2024-03-07T09:25:28;6.57;;;4.95;;
81367;SDS011;70823;50.056;14.398;2024-03-07T09:27:57;7.68;;;4.80;;
81367;SDS011;70823;50.056;14.398;2024-03-07T09:30:23;6.38;;;3.92;;
81367;SDS011;70823;50.056;14.398;2024-03-07T09:32:51;7.25;;;4.75;;
81367;SDS011;70823;50.056;14.398;2024-03-07T09:35:16;6.00;;;4.30;;
81367;SDS011;70823;50.056;14.398;2024-03-07T09:37:42;6.25;;;4.60;;
81367;SDS011;70823;50.056;14.398;2024-03-07T09:40:08;6.38;;;4.53;;
81367;SDS011;70823;50.056;14.398;2024-03-07T09:42:37;4.95;;;4.00;;
81367;SDS011;70823;50.056;14.398;2024-03-07T09:45:07;5.45;;;4.18;;
81367;SDS011;70823;50.056;14.398;2024-03-07T09:47:33;6.10;;;4.57;;
81367;SDS011;70823;50.056;14.398;2024-03-07T09:49:59;7.95;;;5.13;;
81367;SDS011;70823;50.056;14.398;2024-03-07T09:52:25;6.30;;;4.05;;
81367;SDS011;70823;50.056;14.398;2024-03-07T09:54:51;4.95;;;3.80;;
81367;SDS011;70823;50.056;14.398;2024-03-07T09:57:16;6.22;;;4.20;;
81367;SDS011;70823;50.056;14.398;2024-03-07T09:59:42;5.97;;;4.28;;
81367;SDS011;70823;50.056;14.398;2024-03-07T10:02:08;6.18;;;4.07;;
81367;SDS011;70823;50.056;14.398;2024-03-07T10:04:38;6.15;;;4.18;;
81367;SDS011;70823;50.056;14.398;2024-03-07T10:07:10;5.90;;;4.20;;
81367;SDS011;70823;50.056;14.398;2024-03-07T10:09:38;5.70;;;3.90;;
81367;SDS011;70823;50.056;14.398;2024-03-07T10:12:05;6.15;;;4.03;;
81367;SDS011;70823;50.056;14.398;2024-03-07T10:14:34;6.72;;;4.03;;
81367;SDS011;70823;50.056;14.398;2024-03-07T10:16:59;5.82;;;4.60;;
81367;SDS011;70823;50.056;14.398;2024-03-07T10:19:25;5.78;;;4.28;;
81367;SDS011;70823;50.056;14.398;2024-03-07T10:21:50;5.57;;;3.97;;
81367;SDS011;70823;50.056;14.398;2024-03-07T10:24:17;5.38;;;4.03;;
81367;SDS011;70823;50.056;14.398;2024-03-07T10:26:42;5.95;;;4.25;;
81367;SDS011;70823;50.056;14.398;2024-03-07T10:29:08;6.13;;;4.30;;
81367;SDS011;70823;50.056;14.398;2024-03-07T10:31:34;6.32;;;4.22;;
81367;SDS011;70823;50.056;14.398;2024-03-07T10:34:00;6.05;;;3.85;;
81367;SDS011;70823;50.056;14.398;2024-03-07T10:36:27;4.72;;;3.95;;
81367;SDS011;70823;50.056;14.398;2024-03-07T10:38:55;5.25;;;4.00;;
81367;SDS011;70823;50.056;14.398;2024-03-07T10:41:20;6.80;;;4.47;;
81367;SDS011;70823;50.056;14.398;2024-03-07T10:43:51;6.28;;;4.28;;
81367;SDS011;70823;50.056;14.398;2024-03-07T10:46:19;7.07;;;4.30;;
81367;SDS011;70823;50.056;14.398;2024-03-07T10:48:46;6.65;;;5.28;;
81367;SDS011;70823;50.056;14.398;2024-03-07T10:51:21;5.43;;;4.22;;
81367;SDS011;70823;50.056;14.398;2024-03-07T10:53:59;6.63;;;4.35;;
81367;SDS011;70823;50.056;14.398;2024-03-07T10:56:56;6.95;;;3.80;;
81367;SDS011;70823;50.056;14.398;2024-03-07T10:59:30;7.05;;;4.13;;
81367;SDS011;70823;50.056;14.398;2024-03-07T11:04:49;6.30;;;3.95;;
81367;SDS011;70823;50.056;14.398;2024-03-07T11:07:15;5.28;;;3.40;;
81367;SDS011;70823;50.056;14.398;2024-03-07T11:09:41;4.38;;;3.70;;
81367;SDS011;70823;50.056;14.398;2024-03-07T11:12:07;5.63;;;3.55;;
81367;SDS011;70823;50.056;14.398;2024-03-07T11:14:35;5.60;;;4.22;;
81367;SDS011;70823;50.056;14.398;2024-03-07T11:17:02;5.30;;;4.03;;
81367;SDS011;70823;50.056;14.398;2024-03-07T11:19:29;5.68;;;3.97;;
81367;SDS011;70823;50.056;14.398;2024-03-07T11:21:57;5.60;;;3.85;;
81367;SDS011;70823;50.056;14.398;2024-03-07T11:24:24;4.75;;;3.60;;
81367;SDS011;70823;50.056;14.398;2024-03-07T11:27:02;5.00;;;3.83;;
81367;SDS011;70823;50.056;14.398;2024-03-07T11:32:00;5.35;;;3.80;;
81367;SDS011;70823;50.056;14.398;2024-03-07T11:34:29;5.25;;;3.70;;
81367;SDS011;70823;50.056;14.398;2024-03-07T11:36:54;5.15;;;3.67;;
81367;SDS011;70823;50.056;14.398;2024-03-07T11:42:19;5.32;;;3.83;;
81367;SDS011;70823;50.056;14.398;2024-03-07T11:44:45;5.25;;;4.13;;
81367;SDS011;70823;50.056;14.398;2024-03-07T11:47:11;6.00;;;4.15;;
81367;SDS011;70823;50.056;14.398;2024-03-07T11:49:37;4.40;;;3.60;;
81367;SDS011;70823;50.056;14.398;2024-03-07T11:52:03;6.17;;;3.90;;
81367;SDS011;70823;50.056;14.398;2024-03-07T11:54:36;4.65;;;3.72;;
81367;SDS011;70823;50.056;14.398;2024-03-07T11:57:02;5.85;;;4.22;;
81367;SDS011;70823;50.056;14.398;2024-03-07T11:59:37;5.30;;;3.85;;
81367;SDS011;70823;50.056;14.398;2024-03-07T12:02:04;4.95;;;3.55;;
81367;SDS011;70823;50.056;14.398;2024-03-07T12:04:29;4.83;;;3.50;;
81367;SDS011;70823;50.056;14.398;2024-03-07T12:06:55;5.40;;;4.00;;
81367;SDS011;70823;50.056;14.398;2024-03-07T12:09:20;5.43;;;3.90;;
81367;SDS011;70823;50.056;14.398;2024-03-07T12:11:49;5.88;;;4.05;;
81367;SDS011;70823;50.056;14.398;2024-03-07T12:14:18;5.15;;;3.63;;
81367;SDS011;70823;50.056;14.398;2024-03-07T12:16:46;5.55;;;3.30;;
81367;SDS011;70823;50.056;14.398;2024-03-07T12:19:12;5.20;;;3.60;;
81367;SDS011;70823;50.056;14.398;2024-03-07T12:21:37;4.35;;;3.65;;
81367;SDS011;70823;50.056;14.398;2024-03-07T12:24:11;4.68;;;3.40;;
81367;SDS011;70823;50.056;14.398;2024-03-07T12:26:37;4.95;;;3.70;;
81367;SDS011;70823;50.056;14.398;2024-03-07T12:29:11;4.47;;;3.47;;
81367;SDS011;70823;50.056;14.398;2024-03-07T12:31:38;4.60;;;3.65;;
81367;SDS011;70823;50.056;14.398;2024-03-07T12:34:04;6.13;;;3.97;;
81367;SDS011;70823;50.056;14.398;2024-03-07T12:36:30;5.07;;;3.88;;
81367;SDS011;70823;50.056;14.398;2024-03-07T12:38:59;5.00;;;3.67;;
81367;SDS011;70823;50.056;14.398;2024-03-07T12:41:49;4.75;;;3.33;;
81367;SDS011;70823;50.056;14.398;2024-03-07T12:44:17;4.93;;;3.50;;
81367;SDS011;70823;50.056;14.398;2024-03-07T12:46:45;5.60;;;3.35;;
81367;SDS011;70823;50.056;14.398;2024-03-07T12:49:11;5.00;;;3.85;;
81367;SDS011;70823;50.056;14.398;2024-03-07T12:51:40;5.55;;;3.65;;
81367;SDS011;70823;50.056;14.398;2024-03-07T12:54:06;4.85;;;3.80;;
81367;SDS011;70823;50.056;14.398;2024-03-07T12:56:34;4.85;;;3.53;;
81367;SDS011;70823;50.056;14.398;2024-03-07T12:59:02;4.60;;;3.53;;
81367;SDS011;70823;50.056;14.398;2024-03-07T13:01:34;4.93;;;3.78;;
81367;SDS011;70823;50.056;14.398;2024-03-07T13:04:02;5.57;;;3.80;;
81367;SDS011;70823;50.056;14.398;2024-03-07T13:06:29;5.30;;;3.83;;
81367;SDS011;70823;50.056;14.398;2024-03-07T13:08:55;4.93;;;3.55;;
81367;SDS011;70823;50.056;14.398;2024-03-07T13:11:23;4.40;;;3.53;;
81367;SDS011;70823;50.056;14.398;2024-03-07T13:13:52;5.15;;;3.40;;
81367;SDS011;70823;50.056;14.398;2024-03-07T13:16:18;5.28;;;4.00;;
81367;SDS011;70823;50.056;14.398;2024-03-07T13:18:43;5.13;;;3.60;;
81367;SDS011;70823;50.056;14.398;2024-03-07T13:21:10;4.88;;;3.40;;
81367;SDS011;70823;50.056;14.398;2024-03-07T13:23:36;4.88;;;3.58;;
81367;SDS011;70823;50.056;14.398;2024-03-07T13:26:04;5.72;;;3.75;;
81367;SDS011;70823;50.056;14.398;2024-03-07T13:28:41;4.80;;;3.55;;
81367;SDS011;70823;50.056;14.398;2024-03-07T13:31:06;5.45;;;3.50;;
81367;SDS011;70823;50.056;14.398;2024-03-07T13:33:32;4.80;;;3.50;;
81367;SDS011;70823;50.056;14.398;2024-03-07T13:35:58;4.45;;;3.45;;
81367;SDS011;70823;50.056;14.398;2024-03-07T13:38:25;4.38;;;3.70;;
81367;SDS011;70823;50.056;14.398;2024-03-07T13:40:51;5.30;;;4.13;;
81367;SDS011;70823;50.056;14.398;2024-03-07T13:43:17;4.55;;;3.25;;
81367;SDS011;70823;50.056;14.398;2024-03-07T13:45:43;5.23;;;3.40;;
81367;SDS011;70823;50.056;14.398;2024-03-07T13:48:09;4.57;;;3.22;;
81367;SDS011;70823;50.056;14.398;2024-03-07T13:50:35;4.65;;;3.33;;
81367;SDS011;70823;50.056;14.398;2024-03-07T13:53:02;5.10;;;3.92;;
81367;SDS011;70823;50.056;14.398;2024-03-07T13:55:38;5.25;;;3.35;;
81367;SDS011;70823;50.056;14.398;2024-03-07T13:58:11;4.78;;;3.33;;
81367;SDS011;70823;50.056;14.398;2024-03-07T14:00:52;4.78;;;3.72;;
81367;SDS011;70823;50.056;14.398;2024-03-07T14:06:12;4.40;;;3.28;;
81367;SDS011;70823;50.056;14.398;2024-03-07T14:20:46;4.88;;;3.55;;
81367;SDS011;70823;50.056;14.398;2024-03-07T14:23:33;4.85;;;3.35;;
81367;SDS011;70823;50.056;14.398;2024-03-07T14:29:05;3.95;;;3.20;;
81367;SDS011;70823;50.056;14.398;2024-03-07T14:31:41;6.30;;;4.20;;
81367;SDS011;70823;50.056;14.398;2024-03-07T14:36:43;4.13;;;3.17;;
81367;SDS011;70823;50.056;14.398;2024-03-07T14:39:10;4.78;;;3.58;;
81367;SDS011;70823;50.056;14.398;2024-03-07T14:41:48;5.32;;;3.67;;
81367;SDS011;70823;50.056;14.398;2024-03-07T14:44:16;4.32;;;3.30;;
81367;SDS011;70823;50.056;14.398;2024-03-07T14:46:42;4.07;;;3.28;;
81367;SDS011;70823;50.056;14.398;2024-03-07T14:49:12;4.40;;;3.40;;
81367;SDS011;70823;50.056;14.398;2024-03-07T14:51:39;4.35;;;3.25;;
81367;SDS011;70823;50.056;14.398;2024-03-07T14:54:04;4.50;;;3.40;;
81367;SDS011;70823;50.056;14.398;2024-03-07T14:56:30;4.43;;;3.25;;
81367;SDS011;70823;50.056;14.398;2024-03-07T14:58:55;5.43;;;3.10;;
81367;SDS011;70823;50.056;14.398;2024-03-07T15:01:21;4.05;;;2.97;;
81367;SDS011;70823;50.056;14.398;2024-03-07T15:03:46;4.40;;;2.97;;